Time;durP1;ratioP1;P1;durP2;ratioP2;P2;SDS_P1;SDS_P2;PMS_P1;PMS_P2;Temp;Humidity;BMP_temperature;BMP_pressure;BME280_temperature;BME280_humidity;BME280_pressure;Samples;Min_cycle;Max_cycle;Signal;HPM_P1;HPM_P2
2021/12/01 00:01:00;;;;;;;46.72;19.00;;;9.20;99.90;;;;;;5030918;28;20084;-70
2021/12/01 00:03:26;;;;;;;50.42;20.52;;;9.30;99.90;;;;;;5031165;28;20073;-69
2021/12/01 00:05:52;;;;;;;48.65;20.65;;;9.30;99.90;;;;;;5030616;28;20044;-70
2021/12/01 00:08:18;;;;;;;50.25;20.48;;;9.30;99.90;;;;;;5030788;28;20186;-70
2021/12/01 00:10:44;;;;;;;61.63;23.60;;;9.40;99.90;;;;;;5030585;28;20045;-70
2021/12/01 00:13:19;;;;;;;48.63;21.40;;;9.20;99.90;;;;;;5030808;28;20049;-69
2021/12/01 00:15:46;;;;;;;51.00;22.15;;;9.40;99.90;;;;;;5013825;28;20483;-69
2021/12/01 00:18:12;;;;;;;52.65;22.08;;;9.60;99.90;;;;;;5031979;28;20479;-69
2021/12/01 00:20:38;;;;;;;47.17;21.10;;;9.30;99.90;;;;;;5030153;28;20041;-70
2021/12/01 00:23:04;;;;;;;47.55;20.52;;;9.40;99.90;;;;;;5014157;28;20033;-70
2021/12/01 00:25:32;;;;;;;45.65;21.00;;;9.50;99.90;;;;;;5013834;28;20045;-69
2021/12/01 00:27:58;;;;;;;53.55;22.58;;;;;;;;;;5030654;28;20037;-69
2021/12/01 00:30:25;;;;;;;51.78;22.15;;;9.40;99.90;;;;;;5030347;28;20042;-70
2021/12/01 00:32:53;;;;;;;46.33;20.88;;;9.40;99.90;;;;;;5030535;28;20041;-69
2021/12/01 00:35:18;;;;;;;53.58;20.75;;;9.40;99.90;;;;;;5030150;28;20133;-69
2021/12/01 00:37:44;;;;;;;51.03;19.48;;;9.30;99.90;;;;;;5014268;28;20137;-69
2021/12/01 00:40:11;;;;;;;50.95;21.45;;;9.60;99.90;;;;;;5030395;28;20037;-69
2021/12/01 00:42:37;;;;;;;43.22;18.65;;;9.50;99.90;;;;;;5030472;28;20041;-69
2021/12/01 00:45:11;;;;;;;46.65;18.35;;;9.40;99.90;;;;;;5013826;28;20041;-69
2021/12/01 00:47:50;;;;;;;44.13;17.67;;;9.50;99.90;;;;;;5030154;28;20038;-69
2021/12/01 00:50:23;;;;;;;35.70;16.63;;;9.50;99.90;;;;;;5014145;28;20033;-69
2021/12/01 00:52:53;;;;;;;42.88;18.45;;;9.50;99.90;;;;;;5030653;28;20483;-69
2021/12/01 00:55:20;;;;;;;41.05;17.30;;;9.40;99.90;;;;;;5029873;28;20097;-69
2021/12/01 00:57:46;;;;;;;35.50;16.52;;;9.60;99.90;;;;;;5030216;28;20511;-69
2021/12/01 01:00:13;;;;;;;38.63;16.05;;;9.40;99.90;;;;;;5030214;28;20116;-70
2021/12/01 01:02:38;;;;;;;38.17;17.02;;;9.40;99.90;;;;;;5030260;28;20045;-69
2021/12/01 01:05:05;;;;;;;38.17;15.82;;;9.30;99.90;;;;;;5031485;28;20182;-69
2021/12/01 01:07:31;;;;;;;35.50;15.07;;;9.40;99.90;;;;;;5029965;28;20045;-70
2021/12/01 01:10:04;;;;;;;29.10;13.40;;;9.40;99.90;;;;;;5029974;28;20040;-69
2021/12/01 01:18:08;;;;;;;32.08;10.95;;;9.40;99.90;;;;;;5031050;28;20064;-69
2021/12/01 01:20:34;;;;;;;23.08;9.93;;;9.60;99.90;;;;;;5030239;28;20459;-69
2021/12/01 01:23:00;;;;;;;26.52;10.27;;;9.50;99.90;;;;;;5030072;28;20033;-69
2021/12/01 01:25:27;;;;;;;24.83;10.02;;;9.50;99.90;;;;;;5031089;28;20041;-69
2021/12/01 01:27:52;;;;;;;20.20;9.55;;;9.50;99.90;;;;;;5030074;28;20039;-70
2021/12/01 01:30:18;;;;;;;25.92;9.45;;;9.60;99.90;;;;;;5030201;28;20466;-70
2021/12/01 01:32:44;;;;;;;32.28;10.10;;;9.70;99.90;;;;;;5033025;28;20045;-70
2021/12/01 01:35:10;;;;;;;21.13;8.38;;;9.60;99.90;;;;;;5033552;28;20391;-70
2021/12/01 01:37:35;;;;;;;19.17;7.80;;;9.60;99.90;;;;;;5033857;28;20099;-70
2021/12/01 01:40:01;;;;;;;21.73;8.05;;;9.60;99.90;;;;;;5034215;28;20098;-70
2021/12/01 01:42:26;;;;;;;26.38;7.80;;;9.60;99.90;;;;;;5034276;28;20083;-70
2021/12/01 01:44:52;;;;;;;28.40;8.45;;;9.60;99.90;;;;;;5033545;28;20046;-70
2021/12/01 01:47:20;;;;;;;23.65;7.47;;;;;;;;;;5035215;28;20701;-70
2021/12/01 01:52:16;;;;;;;17.40;5.90;;;;;;;;;;5034081;28;20145;-70
2021/12/01 01:54:42;;;;;;;15.20;5.50;;;;;;;;;;5033301;28;20049;-70
2021/12/01 01:57:08;;;;;;;15.88;4.80;;;;;;;;;;5032881;28;20037;-70
2021/12/01 01:59:34;;;;;;;16.63;4.75;;;;;;;;;;5033146;28;20044;-70
2021/12/01 02:02:01;;;;;;;18.85;4.53;;;;;;;;;;5033112;28;20129;-70
2021/12/01 02:04:32;;;;;;;11.00;3.75;;;;;;;;;;5016940;28;20064;-70
2021/12/01 02:06:58;;;;;;;15.82;3.60;;;;;;;;;;5032864;28;20507;-70
2021/12/01 02:09:24;;;;;;;18.80;3.08;;;;;;;;;;5016526;28;20045;-70
2021/12/01 02:11:55;;;;;;;9.38;3.30;;;;;;;;;;5032987;28;20041;-70
2021/12/01 02:14:22;;;;;;;10.38;3.00;;;;;;;;;;5033208;28;20049;-70
2021/12/01 02:16:48;;;;;;;10.70;3.30;;;;;;;;;;5015988;28;20046;-70
2021/12/01 02:19:14;;;;;;;5.32;2.30;;;;;;;;;;5032768;28;20041;-69
2021/12/01 02:21:41;;;;;;;8.85;2.20;;;;;;;;;;5032808;28;20033;-70
2021/12/01 02:24:10;;;;;;;13.23;2.70;;;9.80;99.90;;;;;;5032944;28;20064;-70
2021/12/01 02:26:38;;;;;;;12.77;3.42;;;;;;;;;;5016117;28;20565;-70
2021/12/01 02:29:05;;;;;;;9.23;2.80;;;;;;;;;;5016047;28;20052;-70
2021/12/01 02:31:36;;;;;;;25.83;5.28;;;;;;;;;;5032443;28;20041;-70
2021/12/01 02:34:09;;;;;;;15.68;4.82;;;;;;;;;;5032821;28;20045;-70
2021/12/01 02:36:36;;;;;;;14.95;4.28;;;;;;;;;;5032241;28;20049;-70
2021/12/01 02:39:04;;;;;;;26.38;4.72;;;;;;;;;;5015923;28;20038;-70
2021/12/01 02:41:31;;;;;;;16.90;3.85;;;;;;;;;;5032281;28;20087;-69
2021/12/01 02:43:59;;;;;;;22.48;4.80;;;;;;;;;;5031634;28;20046;-69
2021/12/01 02:46:25;;;;;;;16.55;3.17;;;;;;;;;;5032054;28;20052;-70
2021/12/01 02:48:51;;;;;;;15.98;3.83;;;;;;;;;;5032256;28;20128;-70
2021/12/01 02:51:19;;;;;;;15.35;4.15;;;;;;;;;;5032112;28;20564;-70
2021/12/01 02:53:45;;;;;;;12.90;3.20;;;;;;;;;;5015686;28;20050;-70
2021/12/01 02:56:11;;;;;;;21.42;3.60;;;;;;;;;;5032974;28;20045;-70
2021/12/01 02:58:40;;;;;;;20.08;2.83;;;;;;;;;;5015597;28;20149;-70
2021/12/01 03:01:24;;;;;;;18.15;3.25;;;;;;;;;;5031955;28;20045;-70
2021/12/01 03:03:51;;;;;;;19.00;4.22;;;;;;;;;;5015519;28;20510;-70
2021/12/01 03:06:18;;;;;;;16.95;3.20;;;;;;;;;;5015080;28;20041;-70
2021/12/01 03:08:45;;;;;;;17.42;3.38;;;;;;;;;;5031813;28;20049;-69
2021/12/01 03:11:12;;;;;;;19.00;3.17;;;;;;;;;;5015221;28;20079;-70
2021/12/01 03:13:38;;;;;;;12.20;3.22;;;;;;;;;;5031988;28;20049;-69
2021/12/01 03:16:04;;;;;;;16.30;3.38;;;;;;;;;;5031878;28;20053;-70
2021/12/01 03:18:30;;;;;;;15.98;4.03;;;9.70;99.90;;;;;;5015365;28;20124;-70
2021/12/01 03:20:56;;;;;;;19.65;3.95;;;9.80;99.90;;;;;;5031595;28;20495;-70
2021/12/01 03:23:23;;;;;;;13.20;3.85;;;9.60;99.90;;;;;;5031518;28;20581;-70
2021/12/01 03:25:49;;;;;;;14.05;3.00;;;9.70;99.90;;;;;;5031371;28;20128;-70
2021/12/01 03:28:15;;;;;;;25.48;3.10;;;;;;;;;;5031552;28;20164;-70
2021/12/01 03:30:41;;;;;;;22.13;4.25;;;9.60;99.90;;;;;;5031454;28;20053;-70
2021/12/01 03:33:17;;;;;;;24.42;4.40;;;9.60;99.90;;;;;;5032730;28;20053;-69
2021/12/01 03:35:45;;;;;;;22.90;3.92;;;9.70;99.90;;;;;;5031351;28;20049;-70
2021/12/01 03:38:11;;;;;;;26.10;3.63;;;9.60;99.90;;;;;;5031990;28;20392;-70
2021/12/01 03:40:37;;;;;;;20.50;3.75;;;;;;;;;;5031045;28;20087;-70
2021/12/01 03:43:03;;;;;;;19.90;3.55;;;9.60;99.90;;;;;;5032013;28;20042;-70
2021/12/01 03:45:29;;;;;;;20.08;3.95;;;9.60;99.90;;;;;;5014800;28;20029;-70
2021/12/01 03:47:55;;;;;;;22.80;3.72;;;9.60;99.90;;;;;;5031168;28;20049;-70
2021/12/01 03:50:21;;;;;;;21.23;4.32;;;9.50;99.90;;;;;;5014517;28;20041;-69
2021/12/01 03:52:47;;;;;;;27.13;5.28;;;;;;;;;;5014688;28;20120;-70
2021/12/01 03:55:12;;;;;;;25.35;5.07;;;9.70;99.90;;;;;;5031015;28;20041;-70
2021/12/01 03:57:39;;;;;;;25.50;4.40;;;9.60;99.90;;;;;;5030707;28;20037;-70
2021/12/01 04:00:08;;;;;;;23.88;4.25;;;9.70;99.90;;;;;;5030953;28;20044;-70
2021/12/01 04:02:34;;;;;;;24.52;4.07;;;9.50;99.90;;;;;;5014581;28;20042;-70
2021/12/01 04:05:00;;;;;;;37.22;5.95;;;9.70;99.90;;;;;;5030792;28;20037;-69
2021/12/01 04:07:26;;;;;;;21.90;4.18;;;;;;;;;;5030616;28;20387;-69
2021/12/01 04:09:52;;;;;;;17.20;3.90;;;;;;;;;;5030619;28;20055;-69
2021/12/01 04:12:18;;;;;;;22.90;4.20;;;9.70;99.90;;;;;;5030873;28;20690;-69
2021/12/01 04:14:44;;;;;;;37.25;5.82;;;9.50;99.90;;;;;;5030738;28;20042;-70
2021/12/01 04:17:10;;;;;;;24.88;4.68;;;;;;;;;;5030358;28;20041;-70
2021/12/01 04:19:37;;;;;;;30.85;4.05;;;;;;;;;;5030455;28;20187;-70
2021/12/01 04:22:03;;;;;;;19.67;4.10;;;9.40;99.90;;;;;;5030923;28;20064;-69
2021/12/01 04:24:29;;;;;;;19.95;3.90;;;9.60;99.90;;;;;;5014166;28;20034;-70
2021/12/01 04:26:55;;;;;;;17.35;3.90;;;;;;;;;;5030276;28;20041;-70
2021/12/01 04:29:21;;;;;;;22.08;2.90;;;;;;;;;;5030465;28;20576;-70
2021/12/01 04:31:47;;;;;;;11.52;2.72;;;9.40;99.90;;;;;;5030795;28;20056;-69
2021/12/01 04:34:14;;;;;;;21.30;3.60;;;;;;;;;;5030401;28;20083;-70
2021/12/01 04:36:42;;;;;;;15.07;3.17;;;9.50;99.90;;;;;;5030198;28;20041;-70
2021/12/01 04:39:11;;;;;;;12.57;3.20;;;9.30;99.90;;;;;;5030414;28;20053;-71
2021/12/01 04:41:47;;;;;;;8.18;3.40;;;9.50;99.90;;;;;;5030446;28;20491;-70
2021/12/01 04:44:14;;;;;;;11.13;3.10;;;9.60;99.90;;;;;;5030702;28;20399;-70
2021/12/01 04:46:45;;;;;;;10.07;2.83;;;9.70;99.90;;;;;;5013651;28;20045;-70
2021/12/01 04:49:15;;;;;;;7.93;2.65;;;9.60;99.90;;;;;;5030257;28;20041;-69
2021/12/01 04:51:42;;;;;;;9.00;3.50;;;9.60;99.90;;;;;;5030404;28;20517;-70
2021/12/01 04:54:08;;;;;;;8.32;2.90;;;;;;;;;;5030462;28;20124;-70
2021/12/01 04:56:36;;;;;;;4.72;3.38;;;9.70;99.90;;;;;;5030052;28;20124;-70
2021/12/01 04:59:02;;;;;;;3.63;2.70;;;9.70;99.90;;;;;;5030264;28;20124;-70
2021/12/01 05:01:28;;;;;;;6.38;2.65;;;9.70;99.90;;;;;;5030192;28;20042;-70
2021/12/01 05:03:53;;;;;;;5.88;3.03;;;9.60;99.90;;;;;;5014102;28;20033;-69
2021/12/01 05:06:19;;;;;;;3.55;2.45;;;9.60;99.90;;;;;;5030845;28;20538;-70
2021/12/01 05:08:46;;;;;;;4.00;2.35;;;;;;;;;;5034411;28;20045;-70
2021/12/01 05:11:12;;;;;;;2.70;2.25;;;;;;;;;;5035361;22;20049;-74
2021/12/01 05:13:37;;;;;;;2.65;2.10;;;9.60;99.90;;;;;;4998286;28;20041;-74
2021/12/01 05:16:03;;;;;;;3.67;2.00;;;;;;;;;;4997824;28;20054;-74
2021/12/01 05:18:29;;;;;;;3.05;1.52;;;;;;;;;;4997878;28;20046;-74
2021/12/01 05:20:55;;;;;;;2.15;1.48;;;9.50;99.90;;;;;;5014337;28;20034;-70
2021/12/01 05:23:21;;;;;;;1.30;1.20;;;;;;;;;;4997821;28;20125;-71
2021/12/01 05:25:46;;;;;;;1.10;1.00;;;9.60;99.90;;;;;;4997851;28;20046;-71
2021/12/01 05:28:13;;;;;;;2.38;1.00;;;;;;;;;;4997741;28;20046;-71
2021/12/01 05:30:39;;;;;;;1.23;1.00;;;;;;;;;;4998931;28;20525;-70
2021/12/01 05:33:07;;;;;;;3.88;1.42;;;9.50;99.90;;;;;;4998242;28;20194;-71
2021/12/01 05:35:34;;;;;;;1.25;1.10;;;9.50;99.90;;;;;;4980997;28;20050;-71
2021/12/01 05:38:00;;;;;;;1.60;1.20;;;;;;;;;;5005137;28;20048;-71
2021/12/01 05:40:26;;;;;;;1.63;1.52;;;9.40;99.90;;;;;;5000647;28;20072;-72
2021/12/01 05:42:51;;;;;;;3.33;1.70;;;9.40;99.90;;;;;;4996822;28;20085;-72
2021/12/01 05:45:17;;;;;;;2.72;1.80;;;;;;;;;;4996818;28;20527;-72
2021/12/01 05:47:43;;;;;;;2.33;1.92;;;;;;;;;;4988751;28;20030;-72
2021/12/01 05:50:09;;;;;;;2.75;2.10;;;;;;;;;;4996906;28;20052;-71
2021/12/01 05:52:35;;;;;;;2.10;1.90;;;9.20;99.90;;;;;;4997158;28;20045;-72
2021/12/01 05:55:01;;;;;;;3.17;1.90;;;;;;;;;;4997113;28;20042;-73
2021/12/01 05:57:27;;;;;;;3.88;1.80;;;;;;;;;;4996901;28;20523;-73
2021/12/01 05:59:53;;;;;;;3.25;2.13;;;9.30;99.90;;;;;;4997017;28;20038;-73
2021/12/01 06:02:18;;;;;;;2.83;2.30;;;9.30;99.90;;;;;;4997335;28;20491;-73
2021/12/01 06:04:44;;;;;;;2.65;2.33;;;;;;;;;;4997015;28;20546;-72
2021/12/01 06:07:10;;;;;;;4.75;3.10;;;9.30;99.90;;;;;;4996789;28;20041;-73
2021/12/01 06:09:36;;;;;;;3.63;2.97;;;;;;;;;;4997093;28;20514;-72
2021/12/01 06:12:02;;;;;;;5.15;2.97;;;;;;;;;;4996895;28;20050;-72
2021/12/01 06:14:30;;;;;;;6.20;3.33;;;;;;;;;;4997393;28;20404;-73
2021/12/01 06:16:55;;;;;;;5.20;3.75;;;9.30;99.90;;;;;;4996437;28;20046;-73
2021/12/01 06:19:21;;;;;;;5.00;3.13;;;9.40;99.90;;;;;;4995901;28;20101;-73
2021/12/01 06:21:47;;;;;;;6.68;3.20;;;;;;;;;;4996772;28;20064;-73
2021/12/01 06:24:12;;;;;;;5.70;3.45;;;9.30;99.90;;;;;;4996741;28;20042;-73
2021/12/01 06:26:38;;;;;;;6.50;3.75;;;9.40;99.90;;;;;;4996494;28;20125;-73
2021/12/01 06:29:04;;;;;;;4.10;3.45;;;9.40;99.90;;;;;;4996565;28;20145;-72
2021/12/01 06:31:30;;;;;;;4.40;3.50;;;9.20;99.90;;;;;;4996420;28;20042;-72
2021/12/01 06:33:58;;;;;;;3.95;2.90;;;;;;;;;;4996538;28;20041;-72
2021/12/01 06:36:24;;;;;;;6.85;3.67;;;9.20;99.90;;;;;;4996061;28;20100;-73
2021/12/01 06:38:50;;;;;;;4.80;3.08;;;;;;;;;;4996367;28;20054;-73
2021/12/01 06:41:16;;;;;;;5.40;3.45;;;;;;;;;;4996551;28;20038;-73
2021/12/01 06:43:42;;;;;;;4.82;3.78;;;;;;;;;;4996256;28;20053;-73
2021/12/01 06:46:07;;;;;;;5.00;4.10;;;9.30;99.90;;;;;;4996213;28;20620;-73
2021/12/01 06:48:33;;;;;;;5.43;4.45;;;;;;;;;;4996256;28;20073;-73
2021/12/01 06:51:00;;;;;;;5.18;3.78;;;9.40;99.90;;;;;;4996150;28;20500;-73
2021/12/01 06:53:26;;;;;;;6.38;4.13;;;9.40;99.90;;;;;;4996183;28;20538;-73
2021/12/01 06:55:52;;;;;;;6.32;4.70;;;;;;;;;;4995704;28;20049;-73
2021/12/01 06:58:18;;;;;;;7.50;5.10;;;9.30;99.90;;;;;;4996251;28;20443;-73
2021/12/01 07:00:44;;;;;;;6.07;5.07;;;;;;;;;;4995901;28;20169;-73
2021/12/01 07:03:10;;;;;;;7.03;5.15;;;;;;;;;;4996229;28;20060;-73
2021/12/01 07:05:36;;;;;;;7.63;5.15;;;9.40;99.90;;;;;;4995638;28;20515;-73
2021/12/01 07:08:03;;;;;;;6.50;5.10;;;9.40;99.90;;;;;;4996097;28;20509;-73
2021/12/01 07:10:29;;;;;;;8.77;5.47;;;;;;;;;;4995499;28;20566;-73
2021/12/01 07:12:54;;;;;;;9.45;6.03;;;9.40;99.90;;;;;;4995534;28;20045;-72
2021/12/01 07:15:20;;;;;;;9.85;5.88;;;9.30;99.90;;;;;;4995456;28;20088;-72
2021/12/01 07:17:46;;;;;;;12.05;6.07;;;;;;;;;;4995284;28;20088;-73
2021/12/01 07:20:13;;;;;;;7.75;5.38;;;9.40;99.90;;;;;;4995511;28;20041;-72
2021/12/01 07:22:39;;;;;;;7.22;5.50;;;9.10;99.90;;;;;;4979380;28;20042;-73
2021/12/01 07:25:05;;;;;;;13.45;6.28;;;9.30;99.90;;;;;;4979303;28;20048;-72
2021/12/01 07:27:31;;;;;;;10.55;7.03;;;9.20;99.90;;;;;;4995173;28;20038;-73
2021/12/01 07:29:58;;;;;;;10.70;5.43;;;;;;;;;;5005496;28;20049;-73
2021/12/01 07:32:23;;;;;;;9.65;6.10;;;9.30;99.90;;;;;;5008845;28;20050;-73
2021/12/01 07:34:49;;;;;;;12.32;6.88;;;9.30;99.90;;;;;;5004724;28;20488;-73
2021/12/01 07:37:17;;;;;;;12.70;6.18;;;9.50;99.90;;;;;;5007818;28;20045;-73
2021/12/01 07:39:44;;;;;;;11.20;5.82;;;9.30;99.90;;;;;;5014991;28;20076;-73
2021/12/01 07:42:10;;;;;;;13.57;6.18;;;9.30;99.90;;;;;;5015148;28;20479;-73
2021/12/01 07:44:36;;;;;;;14.20;6.18;;;9.30;99.90;;;;;;5014823;28;20041;-73
2021/12/01 07:47:03;;;;;;;11.77;5.50;;;9.40;99.90;;;;;;5014509;28;20053;-73
2021/12/01 07:49:29;;;;;;;10.18;6.03;;;9.50;99.90;;;;;;5014618;28;20103;-72
2021/12/01 07:51:54;;;;;;;10.75;5.65;;;9.50;99.90;;;;;;5015048;28;20411;-73
2021/12/01 07:54:20;;;;;;;10.07;6.18;;;;;;;;;;4998873;28;20041;-73
2021/12/01 07:56:46;;;;;;;12.20;5.57;;;9.30;99.90;;;;;;5001270;28;20045;-73
2021/12/01 07:59:15;;;;;;;12.30;5.32;;;;;;;;;;4995622;28;20037;-73
2021/12/01 08:01:42;;;;;;;8.98;5.00;;;9.40;99.90;;;;;;4997001;28;20482;-73
2021/12/01 08:04:08;;;;;;;11.35;5.43;;;;;;;;;;5014841;28;20037;-72
2021/12/01 08:06:35;;;;;;;8.40;4.57;;;;;;;;;;5014349;28;20471;-73
2021/12/01 08:09:01;;;;;;;12.85;4.75;;;;;;;;;;5014451;28;20409;-73
2021/12/01 08:11:28;;;;;;;10.27;5.13;;;9.40;99.90;;;;;;5002055;28;20380;-73
2021/12/01 08:13:54;;;;;;;10.75;4.32;;;;;;;;;;5001735;28;20522;-74
2021/12/01 08:16:20;;;;;;;11.27;3.65;;;;;;;;;;4996738;28;20073;-74
2021/12/01 08:18:51;;;;;;;10.13;3.30;;;9.30;99.90;;;;;;5003880;28;20065;-73
2021/12/01 08:21:17;;;;;;;10.63;3.00;;;;;;;;;;4995024;28;20583;-73
2021/12/01 08:23:42;;;;;;;12.20;3.35;;;9.20;99.90;;;;;;5014019;28;20041;-73
2021/12/01 08:26:08;;;;;;;10.95;2.10;;;9.20;99.90;;;;;;5011061;28;20084;-74
2021/12/01 08:28:33;;;;;;;17.67;2.53;;;9.20;99.90;;;;;;4994811;28;20455;-74
2021/12/01 08:30:59;;;;;;;12.48;2.92;;;;;;;;;;4994755;28;20049;-72
2021/12/01 08:33:25;;;;;;;12.43;2.88;;;9.10;99.90;;;;;;4994488;28;20073;-74
2021/12/01 08:35:51;;;;;;;10.60;2.10;;;9.20;99.90;;;;;;4994078;28;20119;-74
2021/12/01 08:38:17;;;;;;;17.98;2.58;;;9.20;99.90;;;;;;4991481;28;20132;-75
2021/12/01 08:40:43;;;;;;;11.15;1.85;;;;;;;;;;4993732;28;20044;-73
2021/12/01 08:43:09;;;;;;;13.48;2.28;;;;;;;;;;4994087;28;20048;-69
2021/12/01 08:45:35;;;;;;;7.68;1.90;;;9.10;99.90;;;;;;5011599;28;20243;-69
2021/12/01 08:48:03;;;;;;;6.53;1.92;;;9.30;99.90;;;;;;4993232;28;20107;-69
2021/12/01 08:50:29;;;;;;;12.85;1.67;;;9.30;99.90;;;;;;4993953;28;20042;-69
2021/12/01 08:52:55;;;;;;;10.18;2.28;;;9.20;99.90;;;;;;4994036;28;20042;-69
2021/12/01 08:55:22;;;;;;;9.98;1.70;;;9.20;99.90;;;;;;5011459;28;20774;-68
2021/12/01 08:57:49;;;;;;;4.47;1.27;;;9.20;99.90;;;;;;4993982;28;20137;-69
2021/12/01 09:00:17;;;;;;;4.75;1.60;;;9.20;99.90;;;;;;5001794;28;20124;-69
2021/12/01 09:02:43;;;;;;;8.40;1.98;;;;;;;;;;5013458;28;20418;-70
2021/12/01 09:05:08;;;;;;;16.05;2.78;;;9.10;99.90;;;;;;5001270;28;20133;-72
2021/12/01 09:07:34;;;;;;;11.40;1.77;;;;;;;;;;5007559;28;20414;-69
2021/12/01 09:10:00;;;;;;;10.55;1.73;;;;;;;;;;4998693;28;20053;-69
2021/12/01 09:12:26;;;;;;;7.15;2.03;;;9.10;99.90;;;;;;4994060;28;20490;-69
2021/12/01 09:14:52;;;;;;;10.68;2.05;;;8.90;99.90;;;;;;5010128;28;20103;-69
2021/12/01 09:17:18;;;;;;;14.18;2.80;;;8.80;99.90;;;;;;4977407;28;20042;-70
2021/12/01 09:19:44;;;;;;;16.88;2.35;;;9.00;99.90;;;;;;4995909;28;20048;-66
2021/12/01 09:22:09;;;;;;;11.10;1.60;;;9.00;99.90;;;;;;5020208;28;20049;-69
2021/12/01 09:24:35;;;;;;;8.00;1.60;;;;;;;;;;5004955;28;20041;-69
2021/12/01 09:27:02;;;;;;;9.73;1.55;;;8.80;99.90;;;;;;5033166;28;20041;-70
2021/12/01 09:29:27;;;;;;;13.57;2.28;;;9.00;99.90;;;;;;5043233;28;20303;-69
2021/12/01 09:31:57;;;;;;;6.15;1.50;;;8.90;99.90;;;;;;5009408;28;20038;-69
2021/12/01 09:34:23;;;;;;;11.27;1.85;;;8.90;99.90;;;;;;4993573;28;20503;-69
2021/12/01 09:36:49;;;;;;;8.65;1.42;;;8.80;99.90;;;;;;5018715;28;20100;-69
2021/12/01 09:39:14;;;;;;;20.05;2.33;;;;;;;;;;5002752;28;20026;-69
2021/12/01 09:41:41;;;;;;;14.57;2.38;;;;;;;;;;5002842;28;20116;-69
2021/12/01 09:44:07;;;;;;;14.88;2.10;;;;;;;;;;5003877;28;20041;-70
2021/12/01 09:46:33;;;;;;;9.52;1.77;;;;;;;;;;5002319;28;20474;-69
2021/12/01 09:48:59;;;;;;;14.30;2.85;;;9.10;99.90;;;;;;5005734;28;20064;-70
2021/12/01 09:51:25;;;;;;;18.08;3.15;;;8.90;99.90;;;;;;4985655;28;20507;-69
2021/12/01 09:53:53;;;;;;;18.25;2.67;;;9.10;99.90;;;;;;4997503;28;20030;-67
2021/12/01 09:56:19;;;;;;;18.15;2.42;;;;;;;;;;5014624;28;20064;-69
2021/12/01 09:58:45;;;;;;;16.60;3.45;;;9.10;99.90;;;;;;5013325;28;20043;-69
2021/12/01 10:01:14;;;;;;;21.95;2.95;;;9.10;99.90;;;;;;5016040;28;20038;-68
2021/12/01 10:03:41;;;;;;;14.18;3.38;;;;;;;;;;4997266;28;20029;-69
2021/12/01 10:06:13;;;;;;;29.52;4.13;;;9.20;99.90;;;;;;4996634;28;20088;-69
2021/12/01 10:08:45;;;;;;;17.07;2.97;;;9.30;99.90;;;;;;4996943;28;20056;-69
2021/12/01 10:11:14;;;;;;;24.27;3.22;;;9.00;99.90;;;;;;4996819;28;20450;-69
2021/12/01 10:13:43;;;;;;;17.58;3.65;;;9.10;99.90;;;;;;5004623;28;20045;-66
2021/12/01 10:16:11;;;;;;;23.83;5.10;;;9.00;99.90;;;;;;4994817;28;20422;-67
2021/12/01 10:18:41;;;;;;;20.35;2.83;;;8.90;99.90;;;;;;5003945;28;20041;-67
2021/12/01 10:21:15;;;;;;;18.92;3.08;;;9.00;99.90;;;;;;5003813;28;20040;-66
2021/12/01 10:23:47;;;;;;;20.10;2.95;;;9.00;99.90;;;;;;5006104;28;20049;-69
2021/12/01 10:26:22;;;;;;;7.55;2.90;;;9.00;99.90;;;;;;5016879;28;20057;-68
2021/12/01 10:28:54;;;;;;;16.17;2.42;;;9.10;99.90;;;;;;5005107;28;20398;-66
2021/12/01 10:31:33;;;;;;;19.95;2.75;;;9.00;99.90;;;;;;4989430;28;20045;-66
2021/12/01 10:34:18;;;;;;;16.58;4.07;;;;;;;;;;5008846;28;20113;-68
2021/12/01 10:36:45;;;;;;;20.67;3.15;;;9.00;99.90;;;;;;5014808;28;20053;-68
2021/12/01 10:39:12;;;;;;;17.67;2.55;;;;;;;;;;5001865;28;20394;-68
2021/12/01 10:41:40;;;;;;;9.40;1.80;;;8.80;99.90;;;;;;5005325;28;20173;-67
2021/12/01 10:44:11;;;;;;;13.77;2.42;;;;;;;;;;5011078;28;20077;-69
2021/12/01 10:46:49;;;;;;;9.20;2.42;;;8.80;99.90;;;;;;5025191;28;20045;-69
2021/12/01 10:49:15;;;;;;;12.52;1.80;;;;;;;;;;5005094;28;20041;-69
2021/12/01 10:51:43;;;;;;;11.55;2.00;;;9.00;99.90;;;;;;4995860;28;20046;-69
2021/12/01 10:54:20;;;;;;;21.17;2.53;;;9.10;99.90;;;;;;4995994;28;20054;-69
2021/12/01 10:57:22;;;;;;;25.75;3.17;;;8.90;99.90;;;;;;4995528;28;20077;-69
2021/12/01 10:59:50;;;;;;;12.60;2.45;;;9.00;99.90;;;;;;5012879;28;20482;-68
2021/12/01 11:02:19;;;;;;;13.90;2.58;;;9.00;99.90;;;;;;4995859;28;20042;-69
2021/12/01 11:04:46;;;;;;;14.95;2.55;;;9.00;99.90;;;;;;4995236;28;20038;-69
2021/12/01 11:07:29;;;;;;;13.40;2.40;;;9.00;99.90;;;;;;4995646;28;20041;-69
2021/12/01 11:12:31;;;;;;;15.88;3.22;;;;;;;;;;5018446;22;20043;-69
2021/12/01 11:14:57;;;;;;;16.50;2.88;;;;;;;;;;4988603;28;20147;-69
2021/12/01 11:17:42;;;;;;;21.95;3.78;;;9.00;99.90;;;;;;5000454;28;20054;-69
2021/12/01 11:20:09;;;;;;;19.83;3.17;;;;;;;;;;5003878;28;20499;-69
2021/12/01 11:22:36;;;;;;;23.65;4.32;;;;;;;;;;4987321;28;20060;-69
2021/12/01 11:25:22;;;;;;;28.67;5.35;;;9.00;99.90;;;;;;4995082;28;20049;-69
2021/12/01 11:27:48;;;;;;;26.77;4.82;;;;;;;;;;4995245;28;20046;-68
2021/12/01 11:30:14;;;;;;;24.67;4.47;;;;;;;;;;4978837;28;20408;-69
2021/12/01 11:32:40;;;;;;;23.55;4.10;;;;;;;;;;4985898;28;20088;-69
2021/12/01 11:35:06;;;;;;;19.52;4.18;;;9.20;99.90;;;;;;4997452;28;20042;-68
2021/12/01 11:37:32;;;;;;;20.95;3.65;;;;;;;;;;4994504;28;20066;-69
2021/12/01 11:39:58;;;;;;;21.52;4.07;;;8.90;99.90;;;;;;4999786;28;20041;-68
2021/12/01 11:42:24;;;;;;;27.90;4.22;;;;;;;;;;4994354;28;20395;-69
2021/12/01 11:44:54;;;;;;;30.80;5.75;;;9.10;99.90;;;;;;4993330;28;20038;-69
2021/12/01 11:47:20;;;;;;;25.58;4.45;;;;;;;;;;4998690;28;20442;-69
2021/12/01 11:49:50;;;;;;;26.85;5.30;;;8.80;99.90;;;;;;4999126;28;20075;-68
2021/12/01 11:52:17;;;;;;;22.98;4.70;;;;;;;;;;5005073;28;20041;-69
2021/12/01 11:54:46;;;;;;;19.30;4.40;;;8.80;99.90;;;;;;4999037;28;20550;-65
2021/12/01 11:57:12;;;;;;;21.88;5.22;;;8.80;99.90;;;;;;4988704;28;20044;-68
2021/12/01 11:59:43;;;;;;;29.27;5.65;;;8.80;99.90;;;;;;4990231;28;20095;-65
2021/12/01 12:02:15;;;;;;;22.27;4.13;;;8.60;99.90;;;;;;4989816;28;20042;-67
2021/12/01 12:04:54;;;;;;;21.20;3.38;;;8.70;99.90;;;;;;4983820;28;20548;-66
2021/12/01 12:07:26;;;;;;;16.30;3.88;;;8.80;99.90;;;;;;4994987;28;20046;-69
2021/12/01 12:10:11;;;;;;;21.77;4.47;;;8.60;99.90;;;;;;4979725;28;20421;-66
2021/12/01 12:13:05;;;;;;;26.52;4.72;;;8.70;99.90;;;;;;4974590;28;20500;-69
2021/12/01 12:15:40;;;;;;;21.65;4.30;;;8.60;99.90;;;;;;5010782;28;20044;-68
2021/12/01 12:18:07;;;;;;;27.63;4.18;;;8.50;99.90;;;;;;5002000;28;20057;-68
2021/12/01 12:20:40;;;;;;;10.07;3.33;;;;;;;;;;5004089;28;20037;-69
2021/12/01 12:23:09;;;;;;;16.60;2.75;;;;;;;;;;5002563;28;20046;-69
2021/12/01 12:25:56;;;;;;;15.90;3.03;;;8.80;99.90;;;;;;5002725;28;20041;-67
2021/12/01 12:28:32;;;;;;;11.52;1.73;;;8.80;99.90;;;;;;5003531;28;20034;-66
2021/12/01 12:31:02;;;;;;;9.00;1.90;;;8.60;99.90;;;;;;4992900;28;20443;-66
2021/12/01 12:33:32;;;;;;;9.13;1.63;;;8.60;99.90;;;;;;4993240;28;20483;-66
2021/12/01 12:36:05;;;;;;;8.88;2.05;;;8.50;99.90;;;;;;4992368;28;20074;-66
2021/12/01 12:38:31;;;;;;;8.73;1.90;;;8.60;99.90;;;;;;4976725;28;20488;-68
2021/12/01 12:41:13;;;;;;;18.70;4.10;;;8.50;99.90;;;;;;4992393;28;20041;-69
2021/12/01 12:43:43;;;;;;;15.38;2.55;;;8.40;99.90;;;;;;4992269;28;20510;-67
2021/12/01 12:46:15;;;;;;;20.65;3.60;;;8.50;99.90;;;;;;4982029;28;20054;-68
2021/12/01 12:48:52;;;;;;;13.57;2.58;;;8.50;99.90;;;;;;4992627;28;20048;-69
2021/12/01 12:51:23;;;;;;;16.38;3.05;;;8.50;99.90;;;;;;5010096;28;20137;-68
2021/12/01 12:54:01;;;;;;;15.20;2.75;;;;;;;;;;4974118;28;20437;-70
2021/12/01 12:56:32;;;;;;;16.80;3.03;;;8.40;99.90;;;;;;4983315;28;20497;-70
2021/12/01 12:59:26;;;;;;;17.38;2.60;;;8.60;99.90;;;;;;4994165;28;20050;-70
2021/12/01 13:01:54;;;;;;;16.95;3.38;;;8.40;99.90;;;;;;4993771;28;20042;-70
2021/12/01 13:07:44;;;;;;;9.27;2.35;;;8.60;99.90;;;;;;5010850;28;20141;-70
2021/12/01 13:10:19;;;;;;;15.73;3.22;;;8.30;99.90;;;;;;4993718;28;20411;-70
2021/12/01 13:13:01;;;;;;;13.43;2.60;;;8.30;99.90;;;;;;4975940;28;20128;-70
2021/12/01 13:15:34;;;;;;;19.30;2.80;;;8.30;99.90;;;;;;4993744;28;20038;-70
2021/12/01 13:18:18;;;;;;;12.10;2.60;;;8.40;99.90;;;;;;4993467;28;20081;-70
2021/12/01 13:20:53;;;;;;;11.88;2.40;;;8.30;99.90;;;;;;4981711;28;20205;-70
2021/12/01 13:23:19;;;;;;;16.75;3.25;;;;;;;;;;4957990;28;20711;-70
2021/12/01 13:26:13;;;;;;;15.10;2.47;;;8.20;99.90;;;;;;4974614;28;20057;-70
2021/12/01 13:29:05;;;;;;;13.93;3.35;;;8.10;99.90;;;;;;4991002;28;20112;-71
2021/12/01 13:31:42;;;;;;;15.00;2.53;;;8.40;99.90;;;;;;5023689;28;20042;-71
2021/12/01 13:34:16;;;;;;;14.88;2.45;;;8.20;99.90;;;;;;4981737;28;20034;-69
2021/12/01 13:36:52;;;;;;;17.92;2.40;;;8.20;99.90;;;;;;4996506;28;20104;-70
2021/12/01 13:39:26;;;;;;;21.35;2.90;;;8.30;99.90;;;;;;4997139;28;20118;-71
2021/12/01 13:41:57;;;;;;;11.88;2.92;;;8.30;99.90;;;;;;4980747;28;20040;-70